MSC Armonia — H8EW — position and weather

sailwx.info

Track history (hours):
 
Tides and Currents Weather Stations Pressure Air Temp Water Temp Dewpoint Dewpoint Depression Visibility Wind Speed Wind Dir Waves Ship Positions

MSC Armonia

Operator: Mediterranean Shipping Company

Last reported at 2019-Feb-23 00:26 UTC. Time now 2019-Feb-23 17:04 UTC.
Position N 20°35' W 086°56'.

Length 275 m; draft 6.8 m.

Type: Ship. MMSI: 357281000.

Date/timePositionNaut miles runAvg speedWind from/ knotsBaromVisibWave heightAir tempDewpointWater temp
2019-Feb-23 00:26N 20°35' W 086°56'4 9.8
2019-Feb-23 00:00N 20°31' W 086°57'0 0.2
2019-Feb-22 23:30N 20°31' W 086°57'0 0.1
2019-Feb-22 23:00N 20°31' W 086°57'0 0.0
2019-Feb-22 22:30N 20°31' W 086°57'0 0.0
2019-Feb-22 22:00N 20°31' W 086°57'0 0.1
2019-Feb-22 21:30N 20°31' W 086°57'0 0.1
2019-Feb-22 21:00N 20°31' W 086°57'0 0.0
2019-Feb-22 20:30N 20°31' W 086°57'0 0.0
2019-Feb-22 19:54N 20°31' W 086°57'0 0.0
2019-Feb-22 19:30N 20°31' W 086°57'0 0.0
2019-Feb-22 19:00N 20°31' W 086°57'0 0.0
2019-Feb-22 18:27N 20°31' W 086°57'0 0.0
2019-Feb-22 17:54N 20°31' W 086°57'0 0.0
2019-Feb-22 17:30N 20°31' W 086°57'0 0.0
2019-Feb-22 17:00N 20°31' W 086°57'0 0.1
2019-Feb-22 16:30N 20°31' W 086°57'0 0.1
2019-Feb-22 16:00N 20°31' W 086°57'0 0.0
2019-Feb-22 15:30N 20°31' W 086°57'0 0.0
2019-Feb-22 15:00N 20°31' W 086°57'0 0.0
2019-Feb-22 14:30N 20°31' W 086°57'0 0.6
2019-Feb-22 14:01N 20°31' W 086°57'510.1
2019-Feb-22 13:29N 20°36' W 086°55'  
2019-Feb-19 00:43N 25°36' W 079°53'315.6
2019-Feb-19 00:30N 25°38' W 079°56'815.9
2019-Feb-19 00:01N 25°44' W 080°01'611.1
2019-Feb-18 23:30N 25°46' W 080°07'3 5.6
2019-Feb-18 22:58N 25°47' W 080°10'0 0.0
2019-Feb-18 22:25N 25°47' W 080°10'0 0.0
2019-Feb-18 21:58N 25°47' W 080°10'0 0.0
2019-Feb-18 21:28N 25°47' W 080°10'0 0.0
2019-Feb-18 20:58N 25°47' W 080°10'0 0.0
2019-Feb-18 20:22N 25°47' W 080°10'0 0.0
2019-Feb-18 19:58N 25°47' W 080°10'0 0.0
2019-Feb-18 19:25N 25°47' W 080°10'0 0.0
2019-Feb-18 18:58N 25°47' W 080°10'0 0.0
2019-Feb-18 18:25N 25°47' W 080°10'0 0.0
2019-Feb-18 17:55N 25°47' W 080°10'0 0.0
2019-Feb-18 17:28N 25°47' W 080°10'0 0.0
2019-Feb-18 16:58N 25°47' W 080°10'0 0.0
2019-Feb-18 16:28N 25°47' W 080°10'0 0.0
2019-Feb-18 15:58N 25°47' W 080°10'0 0.0
2019-Feb-18 15:28N 25°47' W 080°10'0 0.0
2019-Feb-18 14:58N 25°47' W 080°10'0 0.0
2019-Feb-18 14:28N 25°47' W 080°10'0 0.0
2019-Feb-18 13:58N 25°47' W 080°10'0 0.0
2019-Feb-18 13:25N 25°47' W 080°10'0 0.0
2019-Feb-18 12:46N 25°47' W 080°10'0 0.0
2019-Feb-18 12:28N 25°47' W 080°10'0 0.0
2019-Feb-18 11:58N 25°47' W 080°10'0 0.0
2019-Feb-18 11:28N 25°47' W 080°10'0 0.0
2019-Feb-18 10:58N 25°47' W 080°10'0 0.0
2019-Feb-18 10:28N 25°47' W 080°10'1 1.2
2019-Feb-18 10:01N 25°47' W 080°11'3 5.6
2019-Feb-18 09:31N 25°46' W 080°08'611.2
2019-Feb-18 09:00N 25°46' W 080°02'611.5
2019-Feb-18 08:31N 25°41' W 079°59'814.2
2019-Feb-18 07:57N 25°33' W 079°58'  
2019-Feb-15 23:51N 20°36' W 086°56'618.4
2019-Feb-15 23:31N 20°30' W 086°59'1 1.8
2019-Feb-15 22:59N 20°29' W 086°59'0 0.0
2019-Feb-15 22:29N 20°29' W 086°59'0 0.0
2019-Feb-15 21:59N 20°29' W 086°59'0 0.0
2019-Feb-15 21:29N 20°29' W 086°59'0 0.0
2019-Feb-15 20:59N 20°29' W 086°59'0 0.0
2019-Feb-15 20:29N 20°29' W 086°59'0 0.0
2019-Feb-15 19:59N 20°29' W 086°59'0 0.0
2019-Feb-15 19:29N 20°29' W 086°59'0 0.0
2019-Feb-15 18:59N 20°29' W 086°59'0 0.0
2019-Feb-15 18:26N 20°29' W 086°59'0 0.0
2019-Feb-15 17:59N 20°29' W 086°59'0 0.0
2019-Feb-15 17:29N 20°29' W 086°59'0 0.0
2019-Feb-15 16:59N 20°29' W 086°59'0 0.0
2019-Feb-15 16:26N 20°29' W 086°59'0 0.0
2019-Feb-15 15:59N 20°29' W 086°59'0 0.0
2019-Feb-15 15:29N 20°29' W 086°59'0 0.0
2019-Feb-15 14:59N 20°29' W 086°59'0 0.2
2019-Feb-15 14:30N 20°29' W 086°59'4 7.2
2019-Feb-15 14:00N 20°32' W 086°58'  
Track history (hours):
 
Tides and Currents Weather Stations Pressure Air Temp Water Temp Dewpoint Dewpoint Depression Visibility Wind Speed Wind Dir Waves Ship Positions

MSC Armonia

Operator: Mediterranean Shipping Company

Last reported at 2019-Feb-23 00:26 UTC. Time now 2019-Feb-23 17:04 UTC.
Position N 20°35' W 086°56'.

Length 275 m; draft 6.8 m.

Type: Ship. MMSI: 357281000.

Date/timePositionNaut miles runAvg speedWind from/ knotsBaromVisibWave heightAir tempDewpointWater temp
2019-Feb-23 00:26N 20°35' W 086°56'4 9.8
2019-Feb-23 00:00N 20°31' W 086°57'0 0.2
2019-Feb-22 23:30N 20°31' W 086°57'0 0.1
2019-Feb-22 23:00N 20°31' W 086°57'0 0.0
2019-Feb-22 22:30N 20°31' W 086°57'0 0.0
2019-Feb-22 22:00N 20°31' W 086°57'0 0.1
2019-Feb-22 21:30N 20°31' W 086°57'0 0.1
2019-Feb-22 21:00N 20°31' W 086°57'0 0.0
2019-Feb-22 20:30N 20°31' W 086°57'0 0.0
2019-Feb-22 19:54N 20°31' W 086°57'0 0.0
2019-Feb-22 19:30N 20°31' W 086°57'0 0.0
2019-Feb-22 19:00N 20°31' W 086°57'0 0.0
2019-Feb-22 18:27N 20°31' W 086°57'0 0.0
2019-Feb-22 17:54N 20°31' W 086°57'0 0.0
2019-Feb-22 17:30N 20°31' W 086°57'0 0.0
2019-Feb-22 17:00N 20°31' W 086°57'0 0.1
2019-Feb-22 16:30N 20°31' W 086°57'0 0.1
2019-Feb-22 16:00N 20°31' W 086°57'0 0.0
2019-Feb-22 15:30N 20°31' W 086°57'0 0.0
2019-Feb-22 15:00N 20°31' W 086°57'0 0.0
2019-Feb-22 14:30N 20°31' W 086°57'0 0.6
2019-Feb-22 14:01N 20°31' W 086°57'510.1
2019-Feb-22 13:29N 20°36' W 086°55'  
2019-Feb-19 00:43N 25°36' W 079°53'315.6
2019-Feb-19 00:30N 25°38' W 079°56'815.9
2019-Feb-19 00:01N 25°44' W 080°01'611.1
2019-Feb-18 23:30N 25°46' W 080°07'3 5.6
2019-Feb-18 22:58N 25°47' W 080°10'0 0.0
2019-Feb-18 22:25N 25°47' W 080°10'0 0.0
2019-Feb-18 21:58N 25°47' W 080°10'0 0.0
2019-Feb-18 21:28N 25°47' W 080°10'0 0.0
2019-Feb-18 20:58N 25°47' W 080°10'0 0.0
2019-Feb-18 20:22N 25°47' W 080°10'0 0.0
2019-Feb-18 19:58N 25°47' W 080°10'0 0.0
2019-Feb-18 19:25N 25°47' W 080°10'0 0.0
2019-Feb-18 18:58N 25°47' W 080°10'0 0.0
2019-Feb-18 18:25N 25°47' W 080°10'0 0.0
2019-Feb-18 17:55N 25°47' W 080°10'0 0.0
2019-Feb-18 17:28N 25°47' W 080°10'0 0.0
2019-Feb-18 16:58N 25°47' W 080°10'0 0.0
2019-Feb-18 16:28N 25°47' W 080°10'0 0.0
2019-Feb-18 15:58N 25°47' W 080°10'0 0.0
2019-Feb-18 15:28N 25°47' W 080°10'0 0.0
2019-Feb-18 14:58N 25°47' W 080°10'0 0.0
2019-Feb-18 14:28N 25°47' W 080°10'0 0.0
2019-Feb-18 13:58N 25°47' W 080°10'0 0.0
2019-Feb-18 13:25N 25°47' W 080°10'0 0.0
2019-Feb-18 12:46N 25°47' W 080°10'0 0.0
2019-Feb-18 12:28N 25°47' W 080°10'0 0.0
2019-Feb-18 11:58N 25°47' W 080°10'0 0.0
2019-Feb-18 11:28N 25°47' W 080°10'0 0.0
2019-Feb-18 10:58N 25°47' W 080°10'0 0.0
2019-Feb-18 10:28N 25°47' W 080°10'1 1.2
2019-Feb-18 10:01N 25°47' W 080°11'3 5.6
2019-Feb-18 09:31N 25°46' W 080°08'611.2
2019-Feb-18 09:00N 25°46' W 080°02'611.5
2019-Feb-18 08:31N 25°41' W 079°59'814.2
2019-Feb-18 07:57N 25°33' W 079°58'  
2019-Feb-15 23:51N 20°36' W 086°56'618.4
2019-Feb-15 23:31N 20°30' W 086°59'1 1.8
2019-Feb-15 22:59N 20°29' W 086°59'0 0.0
2019-Feb-15 22:29N 20°29' W 086°59'0 0.0
2019-Feb-15 21:59N 20°29' W 086°59'0 0.0
2019-Feb-15 21:29N 20°29' W 086°59'0 0.0
2019-Feb-15 20:59N 20°29' W 086°59'0 0.0
2019-Feb-15 20:29N 20°29' W 086°59'0 0.0
2019-Feb-15 19:59N 20°29' W 086°59'0 0.0
2019-Feb-15 19:29N 20°29' W 086°59'0 0.0
2019-Feb-15 18:59N 20°29' W 086°59'0 0.0
2019-Feb-15 18:26N 20°29' W 086°59'0 0.0
2019-Feb-15 17:59N 20°29' W 086°59'0 0.0
2019-Feb-15 17:29N 20°29' W 086°59'0 0.0
2019-Feb-15 16:59N 20°29' W 086°59'0 0.0
2019-Feb-15 16:26N 20°29' W 086°59'0 0.0
2019-Feb-15 15:59N 20°29' W 086°59'0 0.0
2019-Feb-15 15:29N 20°29' W 086°59'0 0.0
2019-Feb-15 14:59N 20°29' W 086°59'0 0.2
2019-Feb-15 14:30N 20°29' W 086°59'4 7.2
2019-Feb-15 14:00N 20°32' W 086°58'  

Dump ship's entire track history